createdAt,value
2018-05-23T00:02:24.775Z,16.79
2018-05-23T00:04:53.485Z,16.71
2018-05-23T00:07:21.014Z,16.61
2018-05-23T00:09:50.515Z,16.63
2018-05-23T00:12:19.012Z,16.59
2018-05-23T00:14:47.419Z,16.48
2018-05-23T00:17:18.522Z,16.49
2018-05-23T00:19:48.021Z,16.53
2018-05-23T00:22:15.550Z,16.49
2018-05-23T00:24:43.229Z,16.50
2018-05-23T00:27:12.606Z,16.62
2018-05-23T00:29:40.161Z,16.65
2018-05-23T00:32:08.359Z,16.59
2018-05-23T00:34:37.388Z,16.63
2018-05-23T00:37:06.033Z,16.51
2018-05-23T00:39:33.808Z,16.36
2018-05-23T00:42:01.395Z,16.44
2018-05-23T00:44:31.696Z,16.44
2018-05-23T00:46:59.964Z,16.41
2018-05-23T00:49:29.248Z,16.50
2018-05-23T00:51:58.769Z,16.38
2018-05-23T00:54:28.104Z,16.51
2018-05-23T00:56:57.007Z,16.34
2018-05-23T00:59:26.628Z,16.25
2018-05-23T01:01:55.005Z,16.23
2018-05-23T01:04:24.114Z,16.26
2018-05-23T01:06:53.520Z,16.20
2018-05-23T01:09:23.867Z,16.33
2018-05-23T01:11:51.415Z,16.30
2018-05-23T01:14:18.992Z,16.16
2018-05-23T01:16:46.552Z,16.30
2018-05-23T01:19:14.126Z,16.36
2018-05-23T01:21:44.041Z,16.37
2018-05-23T01:24:13.135Z,16.35
2018-05-23T01:26:43.877Z,16.21
2018-05-23T01:29:13.747Z,16.15
2018-05-23T01:31:41.461Z,16.33
2018-05-23T01:34:08.990Z,16.29
2018-05-23T01:36:36.558Z,16.20
2018-05-23T01:39:04.193Z,16.13
2018-05-23T01:41:31.715Z,16.12
2018-05-23T01:43:59.247Z,16.20
2018-05-23T01:46:26.901Z,16.28
2018-05-23T01:49:06.302Z,16.21
2018-05-23T01:51:33.899Z,16.28
2018-05-23T01:54:01.436Z,16.25
2018-05-23T01:56:28.980Z,16.34
2018-05-23T01:58:56.510Z,16.22
2018-05-23T02:01:24.064Z,16.27
2018-05-23T02:03:51.616Z,16.25
2018-05-23T02:06:29.182Z,16.28
2018-05-23T02:11:57.475Z,16.14
2018-05-23T02:14:29.932Z,15.93
2018-05-23T02:17:02.439Z,16.03
2018-05-23T02:19:36.997Z,16.11
2018-05-23T02:22:11.856Z,16.11
2018-05-23T02:24:45.965Z,16.24
2018-05-23T02:27:20.354Z,16.18
2018-05-23T02:29:56.253Z,16.03
2018-05-23T02:32:28.803Z,16.10
2018-05-23T02:37:52.408Z,16.16
2018-05-23T02:42:59.500Z,16.06
2018-05-23T02:45:32.634Z,16.03
2018-05-23T02:48:08.274Z,16.13
2018-05-23T02:50:44.435Z,16.07
2018-05-23T02:53:20.609Z,16.04
2018-05-23T02:55:48.840Z,16.08
2018-05-23T02:58:16.534Z,16.03
2018-05-23T03:00:44.132Z,15.85
2018-05-23T03:03:13.939Z,15.79
2018-05-23T03:05:42.328Z,15.83
2018-05-23T03:08:10.141Z,15.86
2018-05-23T03:10:37.823Z,15.83
2018-05-23T03:13:05.405Z,15.87
2018-05-23T03:15:33.036Z,15.79
2018-05-23T03:18:00.600Z,15.90
2018-05-23T03:20:28.130Z,15.97
2018-05-23T03:22:55.815Z,15.92
2018-05-23T03:25:23.334Z,15.87
2018-05-23T03:27:50.943Z,15.87
2018-05-23T03:30:18.500Z,15.74
2018-05-23T03:32:46.062Z,15.80
2018-05-23T03:35:13.574Z,15.67
2018-05-23T03:37:41.118Z,15.44
2018-05-23T03:40:08.677Z,15.49
2018-05-23T03:42:36.231Z,15.57
2018-05-23T03:45:03.862Z,15.65
2018-05-23T03:47:31.411Z,15.79
2018-05-23T03:49:58.975Z,15.49
2018-05-23T03:52:26.586Z,15.47
2018-05-23T03:54:54.121Z,15.55
2018-05-23T03:57:21.693Z,15.59
2018-05-23T04:00:01.049Z,15.53
2018-05-23T04:02:40.530Z,15.59
2018-05-23T04:05:19.878Z,15.55
2018-05-23T04:07:47.446Z,15.73
2018-05-23T04:10:14.979Z,15.74
2018-05-23T04:12:42.530Z,15.76
2018-05-23T04:15:10.104Z,15.84
2018-05-23T04:17:37.661Z,15.85
2018-05-23T04:20:05.232Z,15.87
2018-05-23T04:22:32.891Z,15.83
2018-05-23T04:25:00.529Z,15.72
2018-05-23T04:27:28.003Z,15.71
2018-05-23T04:29:55.569Z,15.76
2018-05-23T04:32:23.197Z,15.78
2018-05-23T04:34:51.001Z,15.76
2018-05-23T04:37:20.856Z,15.69
2018-05-23T04:39:48.568Z,15.69
2018-05-23T04:42:16.103Z,15.86
2018-05-23T04:44:43.789Z,15.79
2018-05-23T04:47:11.375Z,15.87
2018-05-23T04:49:38.963Z,15.89
2018-05-23T04:52:06.634Z,15.77
2018-05-23T04:54:34.436Z,15.82
2018-05-23T04:57:05.523Z,15.87
2018-05-23T04:59:33.243Z,15.90
2018-05-23T05:02:02.962Z,15.94
2018-05-23T05:04:30.943Z,15.96
2018-05-23T05:06:58.455Z,15.89
2018-05-23T05:09:26.006Z,15.95
2018-05-23T05:11:53.537Z,15.81
2018-05-23T05:14:21.163Z,15.79
2018-05-23T05:16:51.513Z,15.75
2018-05-23T05:19:25.843Z,15.92
2018-05-23T05:21:57.022Z,16.04
2018-05-23T05:24:27.415Z,16.01
2018-05-23T05:26:55.965Z,16.07
2018-05-23T05:29:27.954Z,16.14
2018-05-23T05:34:34.810Z,16.25
2018-05-23T05:37:10.389Z,16.35
2018-05-23T05:39:42.271Z,16.31
2018-05-23T05:42:14.279Z,16.20
2018-05-23T05:47:22.445Z,16.23
2018-05-23T05:49:52.769Z,16.45
2018-05-23T05:52:22.540Z,16.42
2018-05-23T05:54:52.124Z,16.51
2018-05-23T05:57:20.600Z,16.39
2018-05-23T05:59:49.581Z,16.41
2018-05-23T06:02:17.106Z,16.54
2018-05-23T06:04:44.751Z,16.51
2018-05-23T06:07:12.283Z,16.57
2018-05-23T06:09:39.956Z,16.53
2018-05-23T06:12:07.438Z,16.79
2018-05-23T06:14:34.990Z,16.90
2018-05-23T06:17:02.551Z,16.67
2018-05-23T06:19:30.122Z,16.87
2018-05-23T06:21:59.216Z,16.87
2018-05-23T06:24:27.850Z,16.87
2018-05-23T06:26:55.378Z,16.98
2018-05-23T06:29:23.012Z,17.13
2018-05-23T06:31:50.555Z,17.30
2018-05-23T06:34:18.129Z,17.40
2018-05-23T06:36:45.633Z,17.49
2018-05-23T06:39:13.250Z,17.37
2018-05-23T06:41:41.518Z,17.52
2018-05-23T06:44:09.117Z,17.63
2018-05-23T06:46:36.669Z,17.53
2018-05-23T06:49:04.229Z,17.60
2018-05-23T06:51:32.777Z,17.86
2018-05-23T06:54:00.552Z,17.73
2018-05-23T06:56:28.138Z,18.03
2018-05-23T06:58:55.779Z,17.75
2018-05-23T07:01:24.178Z,17.94
2018-05-23T07:03:51.735Z,17.98
2018-05-23T07:06:19.394Z,18.02
2018-05-23T07:08:47.139Z,18.09
2018-05-23T07:11:14.830Z,17.97
2018-05-23T07:13:43.442Z,18.02
2018-05-23T07:16:10.994Z,17.97
2018-05-23T07:18:38.606Z,17.85
2018-05-23T07:21:06.226Z,18.17
2018-05-23T07:23:33.755Z,18.51
2018-05-23T07:26:01.399Z,18.74
2018-05-23T07:28:29.867Z,18.44
2018-05-23T07:30:57.529Z,18.51
2018-05-23T07:33:25.060Z,18.68
2018-05-23T07:35:52.658Z,18.79
2018-05-23T07:38:20.232Z,18.79
2018-05-23T07:40:47.770Z,18.81
2018-05-23T07:43:15.328Z,19.00
2018-05-23T07:45:42.894Z,19.06
2018-05-23T07:48:10.428Z,19.09
2018-05-23T07:50:38.024Z,19.31
2018-05-23T07:53:05.568Z,19.32
2018-05-23T07:55:33.235Z,18.95
2018-05-23T07:58:00.833Z,19.26
2018-05-23T08:00:28.410Z,19.60
2018-05-23T08:02:56.360Z,19.92
2018-05-23T08:05:23.979Z,19.79
2018-05-23T08:07:51.545Z,19.39
2018-05-23T08:10:19.098Z,19.19
2018-05-23T08:12:46.626Z,19.63
2018-05-23T08:15:14.220Z,20.00
2018-05-23T08:17:41.745Z,19.90
2018-05-23T08:20:09.306Z,20.05
2018-05-23T08:22:36.853Z,20.20
2018-05-23T08:25:05.202Z,20.42
2018-05-23T08:27:32.763Z,20.41
2018-05-23T08:30:00.307Z,20.42
2018-05-23T08:32:28.729Z,20.52
2018-05-23T08:34:56.716Z,20.53
2018-05-23T08:37:24.299Z,20.63
2018-05-23T08:39:51.852Z,20.70
2018-05-23T08:42:19.397Z,20.61
2018-05-23T08:44:46.923Z,20.76
2018-05-23T08:47:14.502Z,20.56
2018-05-23T08:49:42.096Z,20.79
2018-05-23T08:52:09.763Z,20.90
2018-05-23T08:54:37.334Z,20.98
2018-05-23T08:57:04.886Z,21.11
2018-05-23T08:59:32.414Z,21.23
2018-05-23T09:01:59.961Z,21.28
2018-05-23T09:04:27.741Z,21.29
2018-05-23T09:06:55.428Z,21.50
2018-05-23T09:09:22.996Z,21.52
2018-05-23T09:11:53.195Z,21.46
2018-05-23T09:14:20.973Z,21.49
2018-05-23T09:16:48.707Z,21.68
2018-05-23T09:19:16.710Z,21.75
2018-05-23T09:21:45.474Z,21.87
2018-05-23T09:24:14.831Z,21.70
2018-05-23T09:26:44.560Z,21.64
2018-05-23T09:29:12.924Z,21.83
2018-05-23T09:31:40.594Z,22.00
2018-05-23T09:34:09.174Z,22.12
2018-05-23T09:36:43.370Z,21.83
2018-05-23T09:39:11.532Z,21.95
2018-05-23T09:41:39.489Z,22.10
2018-05-23T09:44:07.337Z,21.74
2018-05-23T09:46:35.124Z,21.89
2018-05-23T09:49:03.033Z,22.07
2018-05-23T09:51:30.853Z,21.80
2018-05-23T09:53:59.438Z,21.94
2018-05-23T09:56:30.153Z,22.10
2018-05-23T09:58:59.005Z,21.99
2018-05-23T10:01:28.788Z,22.38
2018-05-23T10:03:57.343Z,22.08
2018-05-23T10:06:28.408Z,22.27
2018-05-23T10:08:58.617Z,22.25
2018-05-23T10:11:27.386Z,22.04
2018-05-23T10:13:57.457Z,22.38
2018-05-23T10:16:25.057Z,22.12
2018-05-23T10:18:54.776Z,22.08
2018-05-23T10:21:24.711Z,22.22
2018-05-23T10:23:52.488Z,22.19
2018-05-23T10:26:22.402Z,22.23
2018-05-23T10:28:52.269Z,22.57
2018-05-23T10:31:20.769Z,22.44
2018-05-23T10:33:50.441Z,22.66
2018-05-23T10:36:20.278Z,22.93
2018-05-23T10:38:47.881Z,23.05
2018-05-23T10:41:17.281Z,22.62
2018-05-23T10:43:45.311Z,22.49
2018-05-23T10:46:15.021Z,22.91
2018-05-23T10:48:44.456Z,22.68
2018-05-23T10:51:12.332Z,22.66
2018-05-23T10:53:39.913Z,22.62
2018-05-23T10:56:09.247Z,22.94
2018-05-23T10:58:37.345Z,22.90
2018-05-23T11:01:05.546Z,22.84
2018-05-23T11:03:34.849Z,23.03
2018-05-23T11:06:05.816Z,22.83
2018-05-23T11:08:39.205Z,23.16
2018-05-23T11:11:09.030Z,22.89
2018-05-23T11:13:41.085Z,23.03
2018-05-23T11:16:08.711Z,23.20
2018-05-23T11:18:36.263Z,23.22
2018-05-23T11:21:03.825Z,23.23
2018-05-23T11:23:31.392Z,23.18
2018-05-23T11:25:59.817Z,23.23
2018-05-23T11:28:27.369Z,23.51
2018-05-23T11:30:58.668Z,23.23
2018-05-23T11:33:26.234Z,23.19
2018-05-23T11:35:54.094Z,23.40
2018-05-23T11:38:22.073Z,23.55
2018-05-23T11:40:55.330Z,23.42
2018-05-23T11:43:22.885Z,23.71
2018-05-23T11:45:50.487Z,23.76
2018-05-23T11:48:18.142Z,23.60
2018-05-23T11:50:46.611Z,23.74
2018-05-23T11:53:20.701Z,24.02
2018-05-23T11:55:48.912Z,23.90
2018-05-23T11:58:16.571Z,23.93
2018-05-23T12:00:44.724Z,23.94
2018-05-23T12:03:12.306Z,23.90
2018-05-23T12:05:39.969Z,24.01
2018-05-23T12:08:07.522Z,24.37
2018-05-23T12:10:35.185Z,24.30
2018-05-23T12:13:02.721Z,24.04
2018-05-23T12:15:35.932Z,24.06
2018-05-23T12:18:03.815Z,23.97
2018-05-23T12:20:31.342Z,23.66
2018-05-23T12:22:58.931Z,23.92
2018-05-23T12:25:26.489Z,23.86
2018-05-23T12:27:54.042Z,24.01
2018-05-23T12:30:21.608Z,24.21
2018-05-23T12:32:49.124Z,24.59
2018-05-23T12:35:16.694Z,24.69
2018-05-23T12:37:44.211Z,24.61
2018-05-23T12:40:11.845Z,24.47
2018-05-23T12:42:39.362Z,24.48
2018-05-23T12:45:06.963Z,24.79
2018-05-23T12:47:34.522Z,24.77
2018-05-23T12:50:02.097Z,24.96
2018-05-23T12:52:30.714Z,24.76
2018-05-23T12:54:59.392Z,24.63
2018-05-23T12:57:27.525Z,24.78
2018-05-23T12:59:55.078Z,24.95
2018-05-23T13:02:22.654Z,24.85
2018-05-23T13:04:50.205Z,24.62
2018-05-23T13:07:17.734Z,24.52
2018-05-23T13:09:45.285Z,24.25
2018-05-23T13:12:12.817Z,24.41
2018-05-23T13:14:40.389Z,24.57
2018-05-23T13:17:07.918Z,25.05
2018-05-23T13:19:35.469Z,25.18
2018-05-23T13:22:03.022Z,25.01
2018-05-23T13:24:30.673Z,25.22
2018-05-23T13:26:58.203Z,25.19
2018-05-23T13:29:25.753Z,25.02
2018-05-23T13:31:53.279Z,25.15
2018-05-23T13:34:20.928Z,25.29
2018-05-23T13:36:48.486Z,25.20
2018-05-23T13:39:16.143Z,25.31
2018-05-23T13:41:43.666Z,25.18
2018-05-23T13:44:11.237Z,25.54
2018-05-23T13:46:38.770Z,25.22
2018-05-23T13:49:06.348Z,25.30
2018-05-23T13:51:33.950Z,25.40
2018-05-23T13:54:01.526Z,25.12
2018-05-23T13:56:29.054Z,25.03
2018-05-23T13:58:56.630Z,24.83
2018-05-23T14:01:26.614Z,24.95
2018-05-23T14:03:55.015Z,25.07
2018-05-23T14:06:22.687Z,24.92
2018-05-23T14:08:50.312Z,24.90
2018-05-23T14:11:18.014Z,24.68
2018-05-23T14:13:45.569Z,24.73
2018-05-23T14:16:13.222Z,24.67
2018-05-23T14:18:40.781Z,24.88
2018-05-23T14:21:08.444Z,25.05
2018-05-23T14:23:35.977Z,24.96
2018-05-23T14:26:03.573Z,24.85
2018-05-23T14:28:31.193Z,24.41
2018-05-23T14:30:58.737Z,24.54
2018-05-23T14:33:26.343Z,24.90
2018-05-23T14:35:54.020Z,24.64
2018-05-23T14:38:21.440Z,24.91
2018-05-23T14:40:49.023Z,24.92
2018-05-23T14:43:16.695Z,24.89
2018-05-23T14:45:44.363Z,24.95
2018-05-23T14:48:11.906Z,25.24
2018-05-23T14:50:39.471Z,25.57
2018-05-23T14:53:07.053Z,25.39
2018-05-23T14:55:34.630Z,24.92
2018-05-23T14:58:02.153Z,25.03
2018-05-23T15:00:29.763Z,24.96
2018-05-23T15:02:57.314Z,24.91
2018-05-23T15:05:24.925Z,25.08
2018-05-23T15:07:52.485Z,25.14
2018-05-23T15:10:20.046Z,25.07
2018-05-23T15:12:48.020Z,24.89
2018-05-23T15:15:16.123Z,25.08
2018-05-23T15:17:43.675Z,25.19
2018-05-23T15:20:11.464Z,25.14
2018-05-23T15:22:38.983Z,24.87
2018-05-23T15:25:06.636Z,24.69
2018-05-23T15:27:34.685Z,24.79
2018-05-23T15:30:02.261Z,24.61
2018-05-23T15:32:29.789Z,24.68
2018-05-23T15:34:57.342Z,25.01
2018-05-23T15:37:24.943Z,25.16
2018-05-23T15:39:52.564Z,25.20
2018-05-23T15:42:20.266Z,25.37
2018-05-23T15:44:47.948Z,25.52
2018-05-23T15:47:15.803Z,25.88
2018-05-23T15:49:44.654Z,25.93
2018-05-23T15:52:12.374Z,26.09
2018-05-23T15:54:40.057Z,26.41
2018-05-23T15:57:07.790Z,26.31
2018-05-23T15:59:35.462Z,26.60
2018-05-23T16:02:03.309Z,26.68
2018-05-23T16:04:31.888Z,26.58
2018-05-23T16:06:59.646Z,26.95
2018-05-23T16:09:27.295Z,26.56
2018-05-23T16:11:54.940Z,26.31
2018-05-23T16:14:22.472Z,26.74
2018-05-23T16:16:50.093Z,27.54
2018-05-23T16:19:20.525Z,27.54
2018-05-23T16:21:49.292Z,27.54
2018-05-23T16:24:17.850Z,27.48
2018-05-23T16:26:46.336Z,27.79
2018-05-23T16:29:15.543Z,27.91
2018-05-23T16:31:46.786Z,27.80
2018-05-23T16:34:15.708Z,27.53
2018-05-23T16:36:45.481Z,27.23
2018-05-23T16:39:13.092Z,26.96
2018-05-23T16:41:46.823Z,26.70
2018-05-23T16:44:16.381Z,26.43
2018-05-23T16:46:46.306Z,26.64
2018-05-23T16:49:14.030Z,26.23
2018-05-23T16:51:42.818Z,26.11
2018-05-23T16:54:11.941Z,25.42
2018-05-23T16:56:43.432Z,25.48
2018-05-23T16:59:13.082Z,25.46
2018-05-23T17:01:43.868Z,25.00
2018-05-23T17:04:22.884Z,24.87
2018-05-23T17:09:42.678Z,24.57
2018-05-23T17:12:17.048Z,24.71
2018-05-23T17:14:51.747Z,24.53
2018-05-23T17:17:21.251Z,24.33
2018-05-23T17:19:57.389Z,24.16
2018-05-23T17:22:38.097Z,24.08
2018-05-23T17:25:11.368Z,24.20
2018-05-23T17:30:24.797Z,24.04
2018-05-23T17:33:04.052Z,23.87
2018-05-23T17:38:21.716Z,23.66
2018-05-23T17:43:32.305Z,23.69
2018-05-23T17:48:51.668Z,23.67
2018-05-23T17:51:38.308Z,23.32
2018-05-23T17:54:11.715Z,23.15
2018-05-23T17:56:44.520Z,23.05
2018-05-23T17:59:20.624Z,23.16
2018-05-23T18:04:35.151Z,22.67
2018-05-23T18:07:07.258Z,22.37
2018-05-23T18:09:42.567Z,22.21
2018-05-23T18:12:22.778Z,21.76
2018-05-23T18:14:56.635Z,21.69
2018-05-23T18:17:36.793Z,21.49
2018-05-23T18:20:13.862Z,21.43
2018-05-23T18:22:52.637Z,21.13
2018-05-23T18:28:05.795Z,21.02
2018-05-23T18:33:31.998Z,20.75
2018-05-23T18:36:10.032Z,20.48
2018-05-23T18:46:46.859Z,19.40
2018-05-23T18:49:27.499Z,19.60
2018-05-23T18:52:01.417Z,19.29
2018-05-23T18:57:20.051Z,18.80
2018-05-23T19:02:37.273Z,19.03
2018-05-23T19:05:09.855Z,18.98
2018-05-23T19:07:43.574Z,18.82
2018-05-23T19:10:15.277Z,18.61
2018-05-23T19:12:46.586Z,18.46
2018-05-23T19:15:15.902Z,18.44
2018-05-23T19:17:43.568Z,18.45
2018-05-23T19:20:11.462Z,18.55
2018-05-23T19:22:41.192Z,18.40
2018-05-23T19:25:15.546Z,18.41
2018-05-23T19:27:46.843Z,18.50
2018-05-23T19:30:18.151Z,18.44
2018-05-23T19:32:49.903Z,18.50
2018-05-23T19:35:19.387Z,18.68
2018-05-23T19:37:47.257Z,18.51
2018-05-23T19:40:14.811Z,18.52
2018-05-23T19:42:44.909Z,18.45
2018-05-23T19:45:17.236Z,18.35
2018-05-23T19:50:24.327Z,18.23
2018-05-23T19:52:55.245Z,18.25
2018-05-23T19:55:35.248Z,18.15
2018-05-23T19:58:07.054Z,17.90
2018-05-23T20:00:37.935Z,17.89
2018-05-23T20:03:06.224Z,17.82
2018-05-23T20:05:35.060Z,17.95
2018-05-23T20:08:04.444Z,17.81
2018-05-23T20:10:32.752Z,17.81
2018-05-23T20:13:02.438Z,17.97
2018-05-23T20:15:33.566Z,17.98
2018-05-23T20:18:01.355Z,18.09
2018-05-23T20:20:28.921Z,18.14
2018-05-23T20:22:56.503Z,18.19
2018-05-23T20:25:24.051Z,18.24
2018-05-23T20:27:51.615Z,18.17
2018-05-23T20:30:19.278Z,18.09
2018-05-23T20:32:46.805Z,18.18
2018-05-23T20:35:14.356Z,18.02
2018-05-23T20:37:41.887Z,18.06
2018-05-23T20:40:09.424Z,18.05
2018-05-23T20:42:36.966Z,18.04
2018-05-23T20:45:04.517Z,18.13
2018-05-23T20:47:32.125Z,17.93
2018-05-23T20:49:59.620Z,17.98
2018-05-23T20:52:27.172Z,17.98
2018-05-23T20:54:54.742Z,17.70
2018-05-23T20:57:22.332Z,17.66
2018-05-23T20:59:55.738Z,17.81
2018-05-23T21:02:23.581Z,17.72
2018-05-23T21:04:51.185Z,17.56
2018-05-23T21:10:05.857Z,17.75
2018-05-23T21:12:40.948Z,17.72
2018-05-23T21:15:17.000Z,17.70
2018-05-23T21:17:47.518Z,17.74
2018-05-23T21:20:18.462Z,17.59
2018-05-23T21:22:48.615Z,17.58
2018-05-23T21:25:20.651Z,17.46
2018-05-23T21:27:52.181Z,17.46
2018-05-23T21:30:26.455Z,17.50
2018-05-23T21:32:57.461Z,17.61
2018-05-23T21:35:25.942Z,17.49
2018-05-23T21:37:54.613Z,17.60
2018-05-23T21:40:22.315Z,17.07
2018-05-23T21:42:49.846Z,17.01
2018-05-23T21:45:17.398Z,17.29
2018-05-23T21:47:45.001Z,17.34
2018-05-23T21:50:12.549Z,17.24
2018-05-23T21:52:40.426Z,17.29
2018-05-23T21:55:08.494Z,17.37
2018-05-23T21:57:36.155Z,17.31
2018-05-23T22:00:04.579Z,17.29
2018-05-23T22:02:32.339Z,17.31
2018-05-23T22:04:59.920Z,17.38
2018-05-23T22:07:27.489Z,17.37
2018-05-23T22:09:55.079Z,17.39
2018-05-23T22:12:22.646Z,17.44
2018-05-23T22:14:50.197Z,17.45
2018-05-23T22:17:19.701Z,17.37
2018-05-23T22:19:47.712Z,17.27
2018-05-23T22:22:16.123Z,17.30
2018-05-23T22:24:46.505Z,17.37
2018-05-23T22:27:14.251Z,17.38
2018-05-23T22:29:41.809Z,17.30
2018-05-23T22:32:09.464Z,17.34
2018-05-23T22:34:37.024Z,17.13
2018-05-23T22:37:04.817Z,17.03
2018-05-23T22:39:32.673Z,17.10
2018-05-23T22:42:00.277Z,17.13
2018-05-23T22:44:27.824Z,17.11
2018-05-23T22:46:55.394Z,17.07
2018-05-23T22:49:23.660Z,17.06
2018-05-23T22:51:52.032Z,17.07
2018-05-23T22:54:19.648Z,17.11
2018-05-23T22:56:47.416Z,17.09
2018-05-23T22:59:18.135Z,17.09
2018-05-23T23:01:49.436Z,16.99
2018-05-23T23:04:18.889Z,17.02
2018-05-23T23:06:47.491Z,16.97
2018-05-23T23:09:15.664Z,17.03
2018-05-23T23:11:43.446Z,17.03
2018-05-23T23:14:12.208Z,16.98
2018-05-23T23:16:48.333Z,16.86
2018-05-23T23:19:17.302Z,16.75
2018-05-23T23:24:40.453Z,16.89
2018-05-23T23:41:47.448Z,16.55
2018-05-23T23:44:16.727Z,16.44
2018-05-23T23:46:52.829Z,16.42
2018-05-23T23:55:10.016Z,16.43
